sensor_id;sensor_type;location;lat;lon;timestamp;P1;durP1;ratioP1;P2;durP2;ratioP2
13649;SDS011;6898;50.918;4.688;2022-09-01T00:01:47;8.03;;;5.00;;
13649;SDS011;6898;50.918;4.688;2022-09-01T00:04:16;10.60;;;5.10;;
13649;SDS011;6898;50.918;4.688;2022-09-01T00:06:45;9.23;;;5.20;;
13649;SDS011;6898;50.918;4.688;2022-09-01T00:09:14;7.97;;;4.60;;
13649;SDS011;6898;50.918;4.688;2022-09-01T00:11:44;7.53;;;4.72;;
13649;SDS011;6898;50.918;4.688;2022-09-01T00:14:15;6.88;;;4.88;;
13649;SDS011;6898;50.918;4.688;2022-09-01T00:16:43;9.27;;;5.07;;
13649;SDS011;6898;50.918;4.688;2022-09-01T00:19:12;8.18;;;4.90;;
13649;SDS011;6898;50.918;4.688;2022-09-01T00:21:41;11.88;;;5.22;;
13649;SDS011;6898;50.918;4.688;2022-09-01T00:24:10;7.65;;;4.85;;
13649;SDS011;6898;50.918;4.688;2022-09-01T00:26:39;10.52;;;4.72;;
13649;SDS011;6898;50.918;4.688;2022-09-01T00:29:08;8.85;;;4.82;;
13649;SDS011;6898;50.918;4.688;2022-09-01T00:31:38;8.60;;;5.10;;
13649;SDS011;6898;50.918;4.688;2022-09-01T00:34:07;7.20;;;4.90;;
13649;SDS011;6898;50.918;4.688;2022-09-01T00:36:35;8.75;;;4.97;;
13649;SDS011;6898;50.918;4.688;2022-09-01T00:39:05;7.53;;;5.00;;
13649;SDS011;6898;50.918;4.688;2022-09-01T00:41:35;8.02;;;5.15;;
13649;SDS011;6898;50.918;4.688;2022-09-01T00:44:05;9.65;;;5.38;;
13649;SDS011;6898;50.918;4.688;2022-09-01T00:46:35;8.25;;;5.80;;
13649;SDS011;6898;50.918;4.688;2022-09-01T00:49:07;8.95;;;5.88;;
13649;SDS011;6898;50.918;4.688;2022-09-01T00:51:37;10.75;;;6.03;;
13649;SDS011;6898;50.918;4.688;2022-09-01T00:54:06;10.63;;;6.10;;
13649;SDS011;6898;50.918;4.688;2022-09-01T00:56:36;11.90;;;6.90;;
13649;SDS011;6898;50.918;4.688;2022-09-01T00:59:06;11.15;;;6.43;;
13649;SDS011;6898;50.918;4.688;2022-09-01T01:01:35;11.73;;;6.63;;
13649;SDS011;6898;50.918;4.688;2022-09-01T01:04:06;11.90;;;6.18;;
13649;SDS011;6898;50.918;4.688;2022-09-01T01:06:40;10.90;;;6.47;;
13649;SDS011;6898;50.918;4.688;2022-09-01T01:09:15;13.50;;;6.90;;
13649;SDS011;6898;50.918;4.688;2022-09-01T01:11:43;10.00;;;6.38;;
13649;SDS011;6898;50.918;4.688;2022-09-01T01:14:13;12.90;;;7.10;;
13649;SDS011;6898;50.918;4.688;2022-09-01T01:16:43;10.43;;;6.90;;
13649;SDS011;6898;50.918;4.688;2022-09-01T01:19:15;13.05;;;6.80;;
13649;SDS011;6898;50.918;4.688;2022-09-01T01:22:07;10.18;;;6.30;;
13649;SDS011;6898;50.918;4.688;2022-09-01T01:24:56;9.82;;;6.80;;
13649;SDS011;6898;50.918;4.688;2022-09-01T01:27:30;12.02;;;6.60;;
13649;SDS011;6898;50.918;4.688;2022-09-01T01:29:59;12.98;;;6.80;;
13649;SDS011;6898;50.918;4.688;2022-09-01T01:32:27;12.35;;;7.57;;
13649;SDS011;6898;50.918;4.688;2022-09-01T01:34:56;13.47;;;8.07;;
13649;SDS011;6898;50.918;4.688;2022-09-01T01:37:28;14.02;;;7.90;;
13649;SDS011;6898;50.918;4.688;2022-09-01T01:39:59;12.60;;;7.90;;
13649;SDS011;6898;50.918;4.688;2022-09-01T01:42:28;14.55;;;8.25;;
13649;SDS011;6898;50.918;4.688;2022-09-01T01:44:56;14.60;;;8.20;;
13649;SDS011;6898;50.918;4.688;2022-09-01T01:47:25;14.52;;;8.45;;
13649;SDS011;6898;50.918;4.688;2022-09-01T01:49:53;15.52;;;8.50;;
13649;SDS011;6898;50.918;4.688;2022-09-01T01:52:22;13.07;;;8.52;;
13649;SDS011;6898;50.918;4.688;2022-09-01T01:54:52;12.50;;;8.20;;
13649;SDS011;6898;50.918;4.688;2022-09-01T01:57:22;13.27;;;8.10;;
13649;SDS011;6898;50.918;4.688;2022-09-01T01:59:51;13.53;;;7.93;;
13649;SDS011;6898;50.918;4.688;2022-09-01T02:02:21;14.30;;;8.52;;
13649;SDS011;6898;50.918;4.688;2022-09-01T02:04:56;11.83;;;7.73;;
13649;SDS011;6898;50.918;4.688;2022-09-01T02:07:25;14.15;;;8.02;;
13649;SDS011;6898;50.918;4.688;2022-09-01T02:09:54;11.32;;;7.80;;
13649;SDS011;6898;50.918;4.688;2022-09-01T02:12:24;11.65;;;8.02;;
13649;SDS011;6898;50.918;4.688;2022-09-01T02:14:53;11.73;;;7.75;;
13649;SDS011;6898;50.918;4.688;2022-09-01T02:17:21;13.13;;;8.18;;
13649;SDS011;6898;50.918;4.688;2022-09-01T02:19:52;13.43;;;8.20;;
13649;SDS011;6898;50.918;4.688;2022-09-01T02:22:22;12.07;;;8.15;;
13649;SDS011;6898;50.918;4.688;2022-09-01T02:24:51;13.20;;;7.67;;
13649;SDS011;6898;50.918;4.688;2022-09-01T02:27:21;11.60;;;7.60;;
13649;SDS011;6898;50.918;4.688;2022-09-01T02:29:52;13.65;;;7.47;;
13649;SDS011;6898;50.918;4.688;2022-09-01T02:32:21;13.40;;;7.90;;
13649;SDS011;6898;50.918;4.688;2022-09-01T02:34:49;13.00;;;7.75;;
13649;SDS011;6898;50.918;4.688;2022-09-01T02:37:22;10.80;;;7.50;;
13649;SDS011;6898;50.918;4.688;2022-09-01T02:39:50;12.55;;;7.65;;
13649;SDS011;6898;50.918;4.688;2022-09-01T02:42:22;9.77;;;7.50;;
13649;SDS011;6898;50.918;4.688;2022-09-01T02:44:54;12.10;;;7.78;;
13649;SDS011;6898;50.918;4.688;2022-09-01T02:47:24;11.77;;;7.50;;
13649;SDS011;6898;50.918;4.688;2022-09-01T02:49:53;13.75;;;7.68;;
13649;SDS011;6898;50.918;4.688;2022-09-01T02:52:23;12.23;;;7.17;;
13649;SDS011;6898;50.918;4.688;2022-09-01T02:54:52;10.80;;;7.50;;
13649;SDS011;6898;50.918;4.688;2022-09-01T02:57:20;12.60;;;7.82;;
13649;SDS011;6898;50.918;4.688;2022-09-01T02:59:50;12.67;;;7.90;;
13649;SDS011;6898;50.918;4.688;2022-09-01T03:02:20;12.73;;;7.28;;
13649;SDS011;6898;50.918;4.688;2022-09-01T03:04:48;12.80;;;7.28;;
13649;SDS011;6898;50.918;4.688;2022-09-01T03:07:18;12.75;;;7.88;;
13649;SDS011;6898;50.918;4.688;2022-09-01T03:09:47;21.20;;;8.43;;
13649;SDS011;6898;50.918;4.688;2022-09-01T03:12:15;12.07;;;7.63;;
13649;SDS011;6898;50.918;4.688;2022-09-01T03:14:45;11.17;;;7.20;;
13649;SDS011;6898;50.918;4.688;2022-09-01T03:17:13;12.02;;;7.43;;
13649;SDS011;6898;50.918;4.688;2022-09-01T03:19:43;13.95;;;7.38;;
13649;SDS011;6898;50.918;4.688;2022-09-01T03:22:12;13.48;;;7.57;;
13649;SDS011;6898;50.918;4.688;2022-09-01T03:24:40;15.05;;;7.78;;
13649;SDS011;6898;50.918;4.688;2022-09-01T03:27:09;13.75;;;7.50;;
13649;SDS011;6898;50.918;4.688;2022-09-01T03:29:37;15.13;;;7.82;;
13649;SDS011;6898;50.918;4.688;2022-09-01T03:32:06;13.10;;;7.27;;
13649;SDS011;6898;50.918;4.688;2022-09-01T03:34:34;13.40;;;7.50;;
13649;SDS011;6898;50.918;4.688;2022-09-01T03:37:06;13.82;;;7.78;;
13649;SDS011;6898;50.918;4.688;2022-09-01T03:39:35;15.33;;;8.23;;
13649;SDS011;6898;50.918;4.688;2022-09-01T03:42:03;13.90;;;8.35;;
13649;SDS011;6898;50.918;4.688;2022-09-01T03:44:34;17.15;;;7.93;;
13649;SDS011;6898;50.918;4.688;2022-09-01T03:47:05;13.02;;;8.27;;
13649;SDS011;6898;50.918;4.688;2022-09-01T03:49:40;14.88;;;8.38;;
13649;SDS011;6898;50.918;4.688;2022-09-01T03:52:10;16.13;;;8.63;;
13649;SDS011;6898;50.918;4.688;2022-09-01T03:54:38;12.83;;;7.90;;
13649;SDS011;6898;50.918;4.688;2022-09-01T03:57:07;16.35;;;8.25;;
13649;SDS011;6898;50.918;4.688;2022-09-01T03:59:36;19.90;;;8.50;;
13649;SDS011;6898;50.918;4.688;2022-09-01T04:02:10;18.02;;;8.40;;
13649;SDS011;6898;50.918;4.688;2022-09-01T04:04:40;18.45;;;8.25;;
13649;SDS011;6898;50.918;4.688;2022-09-01T04:07:10;14.35;;;8.10;;
13649;SDS011;6898;50.918;4.688;2022-09-01T04:09:38;13.93;;;7.78;;
13649;SDS011;6898;50.918;4.688;2022-09-01T04:12:09;17.30;;;8.10;;
13649;SDS011;6898;50.918;4.688;2022-09-01T04:14:41;15.15;;;7.80;;
13649;SDS011;6898;50.918;4.688;2022-09-01T04:17:09;12.07;;;7.53;;
13649;SDS011;6898;50.918;4.688;2022-09-01T04:19:55;12.00;;;7.13;;
13649;SDS011;6898;50.918;4.688;2022-09-01T04:22:25;14.40;;;7.67;;
13649;SDS011;6898;50.918;4.688;2022-09-01T04:24:57;12.67;;;7.80;;
13649;SDS011;6898;50.918;4.688;2022-09-01T04:27:25;14.32;;;7.53;;
13649;SDS011;6898;50.918;4.688;2022-09-01T04:29:54;13.30;;;7.60;;
13649;SDS011;6898;50.918;4.688;2022-09-01T04:32:23;13.07;;;7.43;;
13649;SDS011;6898;50.918;4.688;2022-09-01T04:34:51;12.15;;;7.53;;
13649;SDS011;6898;50.918;4.688;2022-09-01T04:37:22;10.70;;;7.93;;
13649;SDS011;6898;50.918;4.688;2022-09-01T04:39:52;14.13;;;7.97;;
13649;SDS011;6898;50.918;4.688;2022-09-01T04:42:22;14.38;;;7.88;;
13649;SDS011;6898;50.918;4.688;2022-09-01T04:44:52;14.27;;;7.68;;
13649;SDS011;6898;50.918;4.688;2022-09-01T04:47:26;13.93;;;8.43;;
13649;SDS011;6898;50.918;4.688;2022-09-01T04:49:56;11.93;;;7.43;;
13649;SDS011;6898;50.918;4.688;2022-09-01T04:52:25;16.00;;;8.00;;
13649;SDS011;6898;50.918;4.688;2022-09-01T04:54:55;15.30;;;7.82;;
13649;SDS011;6898;50.918;4.688;2022-09-01T04:57:24;16.20;;;8.23;;
13649;SDS011;6898;50.918;4.688;2022-09-01T04:59:54;12.75;;;7.80;;
13649;SDS011;6898;50.918;4.688;2022-09-01T05:02:23;15.52;;;8.00;;
13649;SDS011;6898;50.918;4.688;2022-09-01T05:04:54;14.23;;;8.48;;
13649;SDS011;6898;50.918;4.688;2022-09-01T05:07:24;13.30;;;8.00;;
13649;SDS011;6898;50.918;4.688;2022-09-01T05:09:53;13.98;;;7.82;;
13649;SDS011;6898;50.918;4.688;2022-09-01T05:12:27;14.32;;;8.32;;
13649;SDS011;6898;50.918;4.688;2022-09-01T05:14:55;12.65;;;7.97;;
13649;SDS011;6898;50.918;4.688;2022-09-01T05:17:24;15.23;;;8.25;;
13649;SDS011;6898;50.918;4.688;2022-09-01T05:19:55;21.05;;;8.85;;
13649;SDS011;6898;50.918;4.688;2022-09-01T05:22:23;13.00;;;8.30;;
13649;SDS011;6898;50.918;4.688;2022-09-01T05:24:52;12.27;;;8.00;;
13649;SDS011;6898;50.918;4.688;2022-09-01T05:27:21;14.45;;;8.20;;
13649;SDS011;6898;50.918;4.688;2022-09-01T05:29:52;12.52;;;7.95;;
13649;SDS011;6898;50.918;4.688;2022-09-01T05:32:21;15.60;;;8.38;;
13649;SDS011;6898;50.918;4.688;2022-09-01T05:34:51;14.95;;;8.23;;
13649;SDS011;6898;50.918;4.688;2022-09-01T05:37:19;18.05;;;8.73;;
13649;SDS011;6898;50.918;4.688;2022-09-01T05:39:48;16.77;;;8.43;;
13649;SDS011;6898;50.918;4.688;2022-09-01T05:42:18;14.95;;;8.75;;
13649;SDS011;6898;50.918;4.688;2022-09-01T05:44:47;16.02;;;8.85;;
13649;SDS011;6898;50.918;4.688;2022-09-01T05:47:17;14.05;;;8.77;;
13649;SDS011;6898;50.918;4.688;2022-09-01T05:49:47;14.27;;;8.80;;
13649;SDS011;6898;50.918;4.688;2022-09-01T05:52:16;16.77;;;8.90;;
13649;SDS011;6898;50.918;4.688;2022-09-01T05:54:51;15.80;;;9.43;;
13649;SDS011;6898;50.918;4.688;2022-09-01T05:57:20;13.90;;;9.00;;
13649;SDS011;6898;50.918;4.688;2022-09-01T05:59:58;13.93;;;9.13;;
13649;SDS011;6898;50.918;4.688;2022-09-01T06:02:29;13.38;;;8.90;;
13649;SDS011;6898;50.918;4.688;2022-09-01T06:04:59;14.40;;;8.90;;
13649;SDS011;6898;50.918;4.688;2022-09-01T06:07:27;11.63;;;8.17;;
13649;SDS011;6898;50.918;4.688;2022-09-01T06:09:56;15.77;;;8.65;;
13649;SDS011;6898;50.918;4.688;2022-09-01T06:12:25;12.55;;;8.13;;
13649;SDS011;6898;50.918;4.688;2022-09-01T06:14:54;13.07;;;7.82;;
13649;SDS011;6898;50.918;4.688;2022-09-01T06:17:24;11.63;;;7.00;;
13649;SDS011;6898;50.918;4.688;2022-09-01T06:19:54;12.98;;;7.20;;
13649;SDS011;6898;50.918;4.688;2022-09-01T06:22:23;9.80;;;7.10;;
13649;SDS011;6898;50.918;4.688;2022-09-01T06:24:53;8.57;;;6.20;;
13649;SDS011;6898;50.918;4.688;2022-09-01T06:27:27;9.88;;;6.00;;
13649;SDS011;6898;50.918;4.688;2022-09-01T06:29:55;11.15;;;6.10;;
13649;SDS011;6898;50.918;4.688;2022-09-01T06:32:24;9.02;;;5.75;;
13649;SDS011;6898;50.918;4.688;2022-09-01T06:34:54;7.57;;;5.30;;
13649;SDS011;6898;50.918;4.688;2022-09-01T06:37:25;9.75;;;5.32;;
13649;SDS011;6898;50.918;4.688;2022-09-01T06:39:55;8.15;;;5.07;;
13649;SDS011;6898;50.918;4.688;2022-09-01T06:42:24;6.13;;;4.70;;
13649;SDS011;6898;50.918;4.688;2022-09-01T06:44:53;8.23;;;4.80;;
13649;SDS011;6898;50.918;4.688;2022-09-01T06:47:22;9.10;;;4.88;;
13649;SDS011;6898;50.918;4.688;2022-09-01T06:49:55;6.67;;;4.67;;
13649;SDS011;6898;50.918;4.688;2022-09-01T06:52:24;7.80;;;4.90;;
13649;SDS011;6898;50.918;4.688;2022-09-01T06:54:53;7.43;;;4.60;;
13649;SDS011;6898;50.918;4.688;2022-09-01T06:57:21;8.55;;;4.80;;
13649;SDS011;6898;50.918;4.688;2022-09-01T07:00:12;6.30;;;4.88;;
13649;SDS011;6898;50.918;4.688;2022-09-01T07:02:43;6.72;;;4.60;;
13649;SDS011;6898;50.918;4.688;2022-09-01T07:05:14;10.40;;;4.80;;
13649;SDS011;6898;50.918;4.688;2022-09-01T07:08:06;8.37;;;4.90;;
13649;SDS011;6898;50.918;4.688;2022-09-01T07:10:38;6.13;;;4.82;;
13649;SDS011;6898;50.918;4.688;2022-09-01T07:13:30;7.87;;;4.93;;
13649;SDS011;6898;50.918;4.688;2022-09-01T07:16:01;8.48;;;4.95;;
13649;SDS011;6898;50.918;4.688;2022-09-01T07:18:50;9.27;;;5.20;;
13649;SDS011;6898;50.918;4.688;2022-09-01T07:21:25;8.70;;;4.90;;
13649;SDS011;6898;50.918;4.688;2022-09-01T07:24:04;7.55;;;4.68;;
13649;SDS011;6898;50.918;4.688;2022-09-01T07:26:33;9.65;;;5.13;;
13649;SDS011;6898;50.918;4.688;2022-09-01T07:29:02;8.85;;;4.93;;
13649;SDS011;6898;50.918;4.688;2022-09-01T07:31:32;9.63;;;4.97;;
13649;SDS011;6898;50.918;4.688;2022-09-01T07:34:22;8.30;;;4.70;;
13649;SDS011;6898;50.918;4.688;2022-09-01T07:37:08;9.55;;;4.90;;
13649;SDS011;6898;50.918;4.688;2022-09-01T07:39:56;9.05;;;4.63;;
13649;SDS011;6898;50.918;4.688;2022-09-01T07:42:45;7.22;;;4.90;;
13649;SDS011;6898;50.918;4.688;2022-09-01T07:45:34;7.57;;;4.57;;
13649;SDS011;6898;50.918;4.688;2022-09-01T07:48:12;7.32;;;4.60;;
13649;SDS011;6898;50.918;4.688;2022-09-01T07:51:02;7.05;;;4.63;;
13649;SDS011;6898;50.918;4.688;2022-09-01T07:53:51;8.23;;;4.50;;
13649;SDS011;6898;50.918;4.688;2022-09-01T07:56:21;7.63;;;4.40;;
13649;SDS011;6898;50.918;4.688;2022-09-01T07:58:50;8.70;;;4.47;;
13649;SDS011;6898;50.918;4.688;2022-09-01T08:01:19;11.70;;;4.80;;
13649;SDS011;6898;50.918;4.688;2022-09-01T08:03:49;8.30;;;4.60;;
13649;SDS011;6898;50.918;4.688;2022-09-01T08:06:23;6.70;;;4.43;;
13649;SDS011;6898;50.918;4.688;2022-09-01T08:09:05;8.57;;;4.20;;
13649;SDS011;6898;50.918;4.688;2022-09-01T08:11:36;9.20;;;4.27;;
13649;SDS011;6898;50.918;4.688;2022-09-01T08:14:23;7.32;;;3.80;;
13649;SDS011;6898;50.918;4.688;2022-09-01T08:16:52;7.50;;;4.03;;
13649;SDS011;6898;50.918;4.688;2022-09-01T08:19:20;4.20;;;3.67;;
13649;SDS011;6898;50.918;4.688;2022-09-01T08:21:49;4.85;;;3.72;;
13649;SDS011;6898;50.918;4.688;2022-09-01T08:24:19;4.80;;;3.57;;
13649;SDS011;6898;50.918;4.688;2022-09-01T08:26:47;6.68;;;3.70;;
13649;SDS011;6898;50.918;4.688;2022-09-01T08:29:16;5.05;;;3.40;;
13649;SDS011;6898;50.918;4.688;2022-09-01T08:31:45;8.63;;;3.80;;
13649;SDS011;6898;50.918;4.688;2022-09-01T08:34:13;6.47;;;3.78;;
13649;SDS011;6898;50.918;4.688;2022-09-01T08:36:43;6.07;;;3.53;;
13649;SDS011;6898;50.918;4.688;2022-09-01T08:39:11;7.25;;;3.60;;
13649;SDS011;6898;50.918;4.688;2022-09-01T08:41:42;7.85;;;3.88;;
13649;SDS011;6898;50.918;4.688;2022-09-01T08:44:14;3.88;;;3.40;;
13649;SDS011;6898;50.918;4.688;2022-09-01T08:46:45;9.88;;;3.78;;
13649;SDS011;6898;50.918;4.688;2022-09-01T08:49:17;5.40;;;3.60;;
13649;SDS011;6898;50.918;4.688;2022-09-01T08:52:25;6.10;;;3.50;;
13649;SDS011;6898;50.918;4.688;2022-09-01T08:54:55;11.02;;;3.97;;
13649;SDS011;6898;50.918;4.688;2022-09-01T08:57:28;6.50;;;3.67;;
13649;SDS011;6898;50.918;4.688;2022-09-01T08:59:59;4.72;;;3.33;;
13649;SDS011;6898;50.918;4.688;2022-09-01T09:02:33;5.63;;;3.10;;
13649;SDS011;6898;50.918;4.688;2022-09-01T09:05:07;5.90;;;3.30;;
13649;SDS011;6898;50.918;4.688;2022-09-01T09:07:47;5.95;;;3.30;;
13649;SDS011;6898;50.918;4.688;2022-09-01T09:10:19;4.45;;;3.20;;
13649;SDS011;6898;50.918;4.688;2022-09-01T09:12:53;5.82;;;3.25;;
13649;SDS011;6898;50.918;4.688;2022-09-01T09:15:30;6.20;;;3.28;;
13649;SDS011;6898;50.918;4.688;2022-09-01T09:18:06;5.83;;;3.10;;
13649;SDS011;6898;50.918;4.688;2022-09-01T09:20:37;4.20;;;3.10;;
13649;SDS011;6898;50.918;4.688;2022-09-01T09:23:08;4.78;;;3.00;;
13649;SDS011;6898;50.918;4.688;2022-09-01T09:25:38;4.57;;;3.13;;
13649;SDS011;6898;50.918;4.688;2022-09-01T09:28:08;5.95;;;3.10;;
13649;SDS011;6898;50.918;4.688;2022-09-01T09:30:37;6.55;;;3.10;;
13649;SDS011;6898;50.918;4.688;2022-09-01T09:33:06;6.47;;;3.10;;
13649;SDS011;6898;50.918;4.688;2022-09-01T09:35:56;6.53;;;2.80;;
13649;SDS011;6898;50.918;4.688;2022-09-01T09:38:42;5.05;;;2.80;;
13649;SDS011;6898;50.918;4.688;2022-09-01T09:41:14;4.30;;;2.83;;
13649;SDS011;6898;50.918;4.688;2022-09-01T09:43:46;4.53;;;2.78;;
13649;SDS011;6898;50.918;4.688;2022-09-01T09:46:19;4.45;;;2.60;;
13649;SDS011;6898;50.918;4.688;2022-09-01T09:49:08;4.65;;;2.72;;
13649;SDS011;6898;50.918;4.688;2022-09-01T09:51:37;4.15;;;2.70;;
13649;SDS011;6898;50.918;4.688;2022-09-01T09:54:09;4.40;;;2.60;;
13649;SDS011;6898;50.918;4.688;2022-09-01T09:56:39;2.85;;;2.40;;
13649;SDS011;6898;50.918;4.688;2022-09-01T09:59:26;3.40;;;2.25;;
13649;SDS011;6898;50.918;4.688;2022-09-01T10:04:58;5.72;;;2.60;;
13649;SDS011;6898;50.918;4.688;2022-09-01T10:07:28;6.65;;;2.30;;
13649;SDS011;6898;50.918;4.688;2022-09-01T10:09:58;3.17;;;2.60;;
13649;SDS011;6898;50.918;4.688;2022-09-01T10:12:27;2.78;;;2.50;;
13649;SDS011;6898;50.918;4.688;2022-09-01T10:14:59;3.70;;;2.50;;
13649;SDS011;6898;50.918;4.688;2022-09-01T10:17:30;3.20;;;2.20;;
13649;SDS011;6898;50.918;4.688;2022-09-01T10:20:03;5.50;;;2.50;;
13649;SDS011;6898;50.918;4.688;2022-09-01T10:22:33;5.45;;;2.50;;
13649;SDS011;6898;50.918;4.688;2022-09-01T10:25:03;5.00;;;2.30;;
13649;SDS011;6898;50.918;4.688;2022-09-01T10:27:34;4.57;;;2.42;;
13649;SDS011;6898;50.918;4.688;2022-09-01T10:30:06;3.67;;;2.30;;
13649;SDS011;6898;50.918;4.688;2022-09-01T10:32:39;4.70;;;2.28;;
13649;SDS011;6898;50.918;4.688;2022-09-01T10:35:13;2.80;;;2.20;;
13649;SDS011;6898;50.918;4.688;2022-09-01T10:37:45;4.13;;;2.25;;
13649;SDS011;6898;50.918;4.688;2022-09-01T10:40:16;5.03;;;2.47;;
13649;SDS011;6898;50.918;4.688;2022-09-01T10:42:46;4.07;;;2.10;;
13649;SDS011;6898;50.918;4.688;2022-09-01T10:45:29;4.30;;;2.40;;
13649;SDS011;6898;50.918;4.688;2022-09-01T10:53:43;2.80;;;2.28;;
13649;SDS011;6898;50.918;4.688;2022-09-01T10:56:14;4.63;;;2.28;;
13649;SDS011;6898;50.918;4.688;2022-09-01T10:58:54;3.10;;;2.20;;
13649;SDS011;6898;50.918;4.688;2022-09-01T11:05:12;4.53;;;2.15;;
13649;SDS011;6898;50.918;4.688;2022-09-01T11:07:41;2.90;;;2.00;;
13649;SDS011;6898;50.918;4.688;2022-09-01T11:10:37;2.83;;;2.13;;
13649;SDS011;6898;50.918;4.688;2022-09-01T11:15:56;4.57;;;2.15;;
13649;SDS011;6898;50.918;4.688;2022-09-01T11:19:22;3.28;;;2.10;;
13649;SDS011;6898;50.918;4.688;2022-09-01T11:22:02;4.32;;;2.40;;
13649;SDS011;6898;50.918;4.688;2022-09-01T11:24:46;4.43;;;2.17;;
13649;SDS011;6898;50.918;4.688;2022-09-01T11:30:06;4.43;;;2.00;;
13649;SDS011;6898;50.918;4.688;2022-09-01T11:32:36;3.40;;;1.97;;
13649;SDS011;6898;50.918;4.688;2022-09-01T11:35:15;3.78;;;2.00;;
13649;SDS011;6898;50.918;4.688;2022-09-01T11:37:46;4.22;;;2.13;;
13649;SDS011;6898;50.918;4.688;2022-09-01T11:40:18;2.95;;;2.10;;
13649;SDS011;6898;50.918;4.688;2022-09-01T11:42:47;5.85;;;2.15;;
13649;SDS011;6898;50.918;4.688;2022-09-01T11:45:20;6.50;;;2.25;;
13649;SDS011;6898;50.918;4.688;2022-09-01T11:47:50;3.05;;;2.20;;
13649;SDS011;6898;50.918;4.688;2022-09-01T11:50:22;3.45;;;2.10;;
13649;SDS011;6898;50.918;4.688;2022-09-01T11:52:52;6.90;;;2.40;;
13649;SDS011;6898;50.918;4.688;2022-09-01T11:55:28;3.58;;;2.10;;
13649;SDS011;6898;50.918;4.688;2022-09-01T11:57:57;4.07;;;2.35;;
13649;SDS011;6898;50.918;4.688;2022-09-01T12:00:26;3.28;;;2.10;;
13649;SDS011;6898;50.918;4.688;2022-09-01T12:02:56;5.47;;;2.00;;
13649;SDS011;6898;50.918;4.688;2022-09-01T12:05:27;5.83;;;2.30;;
13649;SDS011;6898;50.918;4.688;2022-09-01T12:07:57;2.85;;;2.20;;
13649;SDS011;6898;50.918;4.688;2022-09-01T12:10:28;4.40;;;2.20;;
13649;SDS011;6898;50.918;4.688;2022-09-01T12:13:02;2.90;;;2.10;;
13649;SDS011;6898;50.918;4.688;2022-09-01T12:15:31;3.55;;;2.20;;
13649;SDS011;6898;50.918;4.688;2022-09-01T12:18:14;2.93;;;2.40;;
13649;SDS011;6898;50.918;4.688;2022-09-01T12:20:46;4.80;;;2.40;;
13649;SDS011;6898;50.918;4.688;2022-09-01T12:23:22;20.30;;;3.10;;
13649;SDS011;6898;50.918;4.688;2022-09-01T12:25:52;44.80;;;4.95;;
13649;SDS011;6898;50.918;4.688;2022-09-01T12:28:21;4.03;;;2.28;;
13649;SDS011;6898;50.918;4.688;2022-09-01T12:30:50;6.53;;;2.42;;
13649;SDS011;6898;50.918;4.688;2022-09-01T12:33:20;16.02;;;2.80;;
13649;SDS011;6898;50.918;4.688;2022-09-01T12:35:51;2.95;;;2.28;;
13649;SDS011;6898;50.918;4.688;2022-09-01T12:38:24;4.18;;;2.20;;
13649;SDS011;6898;50.918;4.688;2022-09-01T12:40:55;3.73;;;2.33;;
13649;SDS011;6898;50.918;4.688;2022-09-01T12:43:29;3.15;;;2.30;;
13649;SDS011;6898;50.918;4.688;2022-09-01T12:45:58;4.00;;;2.50;;
13649;SDS011;6898;50.918;4.688;2022-09-01T12:48:30;2.90;;;2.30;;
13649;SDS011;6898;50.918;4.688;2022-09-01T12:51:01;5.60;;;2.50;;
13649;SDS011;6898;50.918;4.688;2022-09-01T12:53:30;4.78;;;2.30;;
13649;SDS011;6898;50.918;4.688;2022-09-01T12:58:46;4.20;;;2.30;;
13649;SDS011;6898;50.918;4.688;2022-09-01T13:01:23;4.10;;;2.50;;
13649;SDS011;6898;50.918;4.688;2022-09-01T13:04:11;2.85;;;2.20;;
13649;SDS011;6898;50.918;4.688;2022-09-01T13:06:41;4.30;;;2.37;;
13649;SDS011;6898;50.918;4.688;2022-09-01T13:09:10;3.88;;;2.42;;
13649;SDS011;6898;50.918;4.688;2022-09-01T13:11:38;3.70;;;2.30;;
13649;SDS011;6898;50.918;4.688;2022-09-01T13:14:27;3.95;;;2.63;;
13649;SDS011;6898;50.918;4.688;2022-09-01T13:16:56;3.17;;;2.50;;
13649;SDS011;6898;50.918;4.688;2022-09-01T13:19:25;5.25;;;2.50;;
13649;SDS011;6898;50.918;4.688;2022-09-01T13:21:55;3.42;;;2.33;;
13649;SDS011;6898;50.918;4.688;2022-09-01T13:24:24;3.63;;;2.20;;
13649;SDS011;6898;50.918;4.688;2022-09-01T13:26:55;2.22;;;2.00;;
13649;SDS011;6898;50.918;4.688;2022-09-01T13:29:44;2.50;;;2.20;;
13649;SDS011;6898;50.918;4.688;2022-09-01T13:32:13;3.80;;;2.08;;
13649;SDS011;6898;50.918;4.688;2022-09-01T13:34:42;3.92;;;2.30;;
13649;SDS011;6898;50.918;4.688;2022-09-01T13:37:12;3.13;;;2.00;;
13649;SDS011;6898;50.918;4.688;2022-09-01T13:39:40;5.75;;;2.42;;
13649;SDS011;6898;50.918;4.688;2022-09-01T13:42:09;2.77;;;2.20;;
13649;SDS011;6898;50.918;4.688;2022-09-01T13:44:39;2.40;;;2.10;;
13649;SDS011;6898;50.918;4.688;2022-09-01T13:47:07;2.80;;;2.20;;
13649;SDS011;6898;50.918;4.688;2022-09-01T13:49:56;2.85;;;2.00;;
13649;SDS011;6898;50.918;4.688;2022-09-01T13:52:35;2.10;;;1.80;;
13649;SDS011;6898;50.918;4.688;2022-09-01T13:55:04;4.07;;;2.08;;
13649;SDS011;6898;50.918;4.688;2022-09-01T13:57:33;2.60;;;1.90;;
13649;SDS011;6898;50.918;4.688;2022-09-01T14:00:03;4.15;;;2.10;;
13649;SDS011;6898;50.918;4.688;2022-09-01T14:02:32;3.90;;;2.10;;
13649;SDS011;6898;50.918;4.688;2022-09-01T14:05:03;3.40;;;2.00;;
13649;SDS011;6898;50.918;4.688;2022-09-01T14:07:31;2.75;;;2.08;;
13649;SDS011;6898;50.918;4.688;2022-09-01T14:10:01;3.75;;;2.00;;
13649;SDS011;6898;50.918;4.688;2022-09-01T14:12:30;3.27;;;2.00;;
13649;SDS011;6898;50.918;4.688;2022-09-01T14:14:58;3.00;;;1.73;;
13649;SDS011;6898;50.918;4.688;2022-09-01T14:17:44;2.92;;;2.00;;
13649;SDS011;6898;50.918;4.688;2022-09-01T14:20:13;4.63;;;2.10;;
13649;SDS011;6898;50.918;4.688;2022-09-01T14:22:43;3.72;;;2.10;;
13649;SDS011;6898;50.918;4.688;2022-09-01T14:25:13;3.33;;;2.10;;
13649;SDS011;6898;50.918;4.688;2022-09-01T14:27:42;2.20;;;2.00;;
13649;SDS011;6898;50.918;4.688;2022-09-01T14:30:12;3.22;;;2.00;;
13649;SDS011;6898;50.918;4.688;2022-09-01T14:32:41;3.38;;;2.00;;
13649;SDS011;6898;50.918;4.688;2022-09-01T14:35:10;3.85;;;1.90;;
13649;SDS011;6898;50.918;4.688;2022-09-01T14:37:39;2.05;;;1.75;;
13649;SDS011;6898;50.918;4.688;2022-09-01T14:40:08;2.42;;;1.80;;
13649;SDS011;6898;50.918;4.688;2022-09-01T14:42:41;4.77;;;2.00;;
13649;SDS011;6898;50.918;4.688;2022-09-01T14:45:11;3.92;;;2.08;;
13649;SDS011;6898;50.918;4.688;2022-09-01T14:47:41;3.22;;;1.98;;
13649;SDS011;6898;50.918;4.688;2022-09-01T14:50:10;3.33;;;1.90;;
13649;SDS011;6898;50.918;4.688;2022-09-01T14:52:39;3.85;;;2.08;;
13649;SDS011;6898;50.918;4.688;2022-09-01T14:55:08;5.87;;;2.00;;
13649;SDS011;6898;50.918;4.688;2022-09-01T14:57:37;3.05;;;1.90;;
13649;SDS011;6898;50.918;4.688;2022-09-01T15:00:08;3.08;;;1.70;;
13649;SDS011;6898;50.918;4.688;2022-09-01T15:02:38;4.65;;;1.90;;
13649;SDS011;6898;50.918;4.688;2022-09-01T15:05:07;2.70;;;1.90;;
13649;SDS011;6898;50.918;4.688;2022-09-01T15:07:39;2.97;;;1.90;;
13649;SDS011;6898;50.918;4.688;2022-09-01T15:10:12;3.53;;;1.90;;
13649;SDS011;6898;50.918;4.688;2022-09-01T15:12:43;2.88;;;1.80;;
13649;SDS011;6898;50.918;4.688;2022-09-01T15:15:13;2.53;;;1.80;;
13649;SDS011;6898;50.918;4.688;2022-09-01T15:17:41;3.20;;;2.00;;
13649;SDS011;6898;50.918;4.688;2022-09-01T15:20:11;3.50;;;1.90;;
13649;SDS011;6898;50.918;4.688;2022-09-01T15:22:57;4.57;;;1.80;;
13649;SDS011;6898;50.918;4.688;2022-09-01T15:25:29;2.33;;;1.80;;
13649;SDS011;6898;50.918;4.688;2022-09-01T15:28:01;4.18;;;1.90;;
13649;SDS011;6898;50.918;4.688;2022-09-01T15:30:31;3.72;;;1.90;;
13649;SDS011;6898;50.918;4.688;2022-09-01T15:33:00;4.07;;;2.00;;
13649;SDS011;6898;50.918;4.688;2022-09-01T15:35:29;5.22;;;1.98;;
13649;SDS011;6898;50.918;4.688;2022-09-01T15:37:58;4.13;;;2.05;;
13649;SDS011;6898;50.918;4.688;2022-09-01T15:40:27;2.73;;;1.80;;
13649;SDS011;6898;50.918;4.688;2022-09-01T15:42:56;3.72;;;2.00;;
13649;SDS011;6898;50.918;4.688;2022-09-01T15:45:26;3.40;;;1.90;;